createdAt,value
2023-07-16T00:02:07.286Z,1.70
2023-07-16T00:04:35.717Z,1.70
2023-07-16T00:07:03.250Z,1.50
2023-07-16T00:09:30.816Z,1.67
2023-07-16T00:11:59.210Z,1.50
2023-07-16T00:14:27.555Z,1.43
2023-07-16T00:16:55.241Z,1.50
2023-07-16T00:19:23.522Z,1.87
2023-07-16T00:21:51.864Z,1.53
2023-07-16T00:24:19.450Z,1.80
2023-07-16T00:26:47.845Z,1.90
2023-07-16T00:29:15.412Z,1.60
2023-07-16T00:31:42.988Z,1.70
2023-07-16T00:34:10.653Z,1.50
2023-07-16T00:36:38.197Z,1.93
2023-07-16T00:39:05.773Z,1.50
2023-07-16T00:41:33.580Z,1.77
2023-07-16T00:44:01.172Z,2.00
2023-07-16T00:46:28.828Z,2.23
2023-07-16T00:48:56.373Z,1.90
2023-07-16T00:51:23.994Z,1.60
2023-07-16T00:53:51.591Z,1.50
2023-07-16T00:56:19.357Z,1.73
2023-07-16T00:58:46.934Z,2.17
2023-07-16T01:01:15.292Z,1.80
2023-07-16T01:03:42.899Z,2.30
2023-07-16T01:06:16.762Z,2.17
2023-07-16T01:08:47.053Z,2.20
2023-07-16T01:11:14.596Z,2.22
2023-07-16T01:13:42.181Z,1.80
2023-07-16T01:16:09.849Z,1.57
2023-07-16T01:18:37.397Z,2.10
2023-07-16T01:21:04.964Z,1.90
2023-07-16T01:23:41.355Z,1.80
2023-07-16T01:26:24.857Z,1.60
2023-07-16T01:29:17.121Z,2.00
2023-07-16T01:31:44.712Z,1.40
2023-07-16T01:34:12.297Z,1.93
2023-07-16T01:36:40.620Z,1.73
2023-07-16T01:39:08.974Z,1.77
2023-07-16T01:41:36.543Z,1.50
2023-07-16T01:44:04.155Z,1.90
2023-07-16T01:46:31.885Z,1.75
2023-07-16T01:48:59.310Z,1.93
2023-07-16T01:51:26.924Z,1.77
2023-07-16T01:53:54.499Z,1.90
2023-07-16T01:56:22.079Z,1.80
2023-07-16T01:58:49.735Z,2.03
2023-07-16T02:01:17.407Z,1.70
2023-07-16T02:03:44.954Z,1.50
2023-07-16T02:06:13.369Z,1.80
2023-07-16T02:08:40.830Z,1.63
2023-07-16T02:11:09.183Z,1.57
2023-07-16T02:13:36.809Z,1.47
2023-07-16T02:16:04.409Z,2.15
2023-07-16T02:18:31.963Z,1.97
2023-07-16T02:20:59.595Z,1.83
2023-07-16T02:23:27.200Z,2.13
2023-07-16T02:25:54.821Z,1.60
2023-07-16T02:28:23.349Z,1.60
2023-07-16T02:30:50.898Z,1.77
2023-07-16T02:33:18.476Z,1.93
2023-07-16T02:35:55.703Z,2.20
2023-07-16T02:38:23.223Z,1.77
2023-07-16T02:40:51.577Z,2.20
2023-07-16T02:43:19.193Z,1.83
2023-07-16T02:45:46.784Z,2.00
2023-07-16T02:48:14.432Z,1.60
2023-07-16T02:50:41.989Z,2.27
2023-07-16T02:53:09.548Z,2.12
2023-07-16T02:55:37.134Z,1.97
2023-07-16T02:58:04.812Z,2.10
2023-07-16T03:00:32.372Z,1.90
2023-07-16T03:03:00.814Z,1.60
2023-07-16T03:05:28.352Z,2.03
2023-07-16T03:07:55.918Z,2.07
2023-07-16T03:10:23.494Z,2.10
2023-07-16T03:12:51.109Z,1.90
2023-07-16T03:15:18.682Z,1.90
2023-07-16T03:17:46.278Z,1.77
2023-07-16T03:20:13.880Z,2.13
2023-07-16T03:22:42.286Z,2.10
2023-07-16T03:25:09.874Z,2.20
2023-07-16T03:27:37.444Z,2.17
2023-07-16T03:30:05.043Z,1.93
2023-07-16T03:32:46.441Z,1.90
2023-07-16T03:35:01.037Z,1.80
2023-07-16T03:37:28.607Z,2.45
2023-07-16T03:39:56.194Z,2.43
2023-07-16T03:42:24.540Z,2.17
2023-07-16T03:44:52.116Z,2.30
2023-07-16T03:47:19.714Z,2.97
2023-07-16T03:49:48.651Z,2.10
2023-07-16T03:52:16.235Z,2.20
2023-07-16T03:54:43.791Z,2.70
2023-07-16T03:57:12.164Z,2.30
2023-07-16T03:59:39.781Z,2.23
2023-07-16T04:02:08.199Z,2.13
2023-07-16T04:04:36.563Z,2.50
2023-07-16T04:07:04.136Z,2.58
2023-07-16T04:09:31.715Z,2.47
2023-07-16T04:12:00.119Z,2.80
2023-07-16T04:14:27.687Z,2.50
2023-07-16T04:16:55.294Z,2.50
2023-07-16T04:19:22.900Z,2.40
2023-07-16T04:21:50.468Z,2.60
2023-07-16T04:24:18.042Z,2.87
2023-07-16T04:26:45.738Z,2.50
2023-07-16T04:29:13.296Z,2.47
2023-07-16T04:31:40.862Z,2.80
2023-07-16T04:34:08.503Z,2.50
2023-07-16T04:36:36.078Z,2.90
2023-07-16T04:39:03.663Z,2.90
2023-07-16T04:41:31.306Z,2.40
2023-07-16T04:43:59.650Z,2.37
2023-07-16T04:46:27.345Z,3.00
2023-07-16T04:48:55.023Z,2.80
2023-07-16T04:51:23.406Z,2.80
2023-07-16T04:53:50.962Z,2.27
2023-07-16T04:56:18.703Z,2.92
2023-07-16T04:58:46.125Z,2.70
2023-07-16T05:01:13.881Z,2.60
2023-07-16T05:03:41.404Z,2.60
2023-07-16T05:06:08.921Z,2.60
2023-07-16T05:08:36.492Z,2.50
2023-07-16T05:11:04.870Z,2.57
2023-07-16T05:13:32.445Z,2.85
2023-07-16T05:16:00.088Z,3.20
2023-07-16T05:18:28.491Z,2.73
2023-07-16T05:20:56.024Z,2.53
2023-07-16T05:23:23.664Z,2.37
2023-07-16T05:25:51.296Z,2.40
2023-07-16T05:28:18.843Z,2.83
2023-07-16T05:30:47.185Z,2.87
2023-07-16T05:33:14.791Z,3.05
2023-07-16T05:35:42.410Z,2.97
2023-07-16T05:38:10.061Z,3.33
2023-07-16T05:40:37.682Z,3.40
2023-07-16T05:43:05.356Z,3.27
2023-07-16T05:45:32.872Z,3.00
2023-07-16T05:48:00.579Z,3.57
2023-07-16T05:50:28.035Z,3.10
2023-07-16T05:52:55.631Z,3.00
2023-07-16T05:55:23.266Z,3.43
2023-07-16T05:57:50.819Z,4.30
2023-07-16T06:00:18.394Z,3.60
2023-07-16T06:02:46.087Z,3.73
2023-07-16T06:05:13.598Z,4.13
2023-07-16T06:07:41.166Z,3.53
2023-07-16T06:10:08.887Z,3.43
2023-07-16T06:12:36.472Z,3.97
2023-07-16T06:15:04.054Z,3.93
2023-07-16T06:17:31.756Z,3.97
2023-07-16T06:19:59.295Z,4.60
2023-07-16T06:22:26.895Z,5.25
2023-07-16T06:24:55.278Z,4.95
2023-07-16T06:27:22.873Z,4.47
2023-07-16T06:29:50.398Z,4.33
2023-07-16T06:32:18.009Z,4.30
2023-07-16T06:34:45.591Z,4.00
2023-07-16T06:37:13.936Z,4.40
2023-07-16T06:39:41.569Z,4.13
2023-07-16T06:42:09.154Z,4.77
2023-07-16T06:44:36.730Z,4.77
2023-07-16T06:47:05.118Z,4.93
2023-07-16T06:49:33.462Z,4.43
2023-07-16T06:52:01.063Z,4.53
2023-07-16T06:54:29.487Z,5.22
2023-07-16T06:56:57.077Z,4.90
2023-07-16T06:59:24.651Z,4.10
2023-07-16T07:01:53.066Z,4.78
2023-07-16T07:04:20.767Z,4.00
2023-07-16T07:06:48.220Z,4.33
2023-07-16T07:09:15.837Z,4.40
2023-07-16T07:11:43.408Z,4.70
2023-07-16T07:14:12.092Z,4.27
2023-07-16T07:16:39.504Z,4.23
2023-07-16T07:19:07.778Z,4.20
2023-07-16T07:21:35.362Z,4.10
2023-07-16T07:24:03.762Z,3.93
2023-07-16T07:26:31.326Z,4.33
2023-07-16T07:28:58.896Z,3.77
2023-07-16T07:31:26.544Z,4.07
2023-07-16T07:33:54.861Z,4.50
2023-07-16T07:36:22.457Z,4.77
2023-07-16T07:38:50.831Z,4.23
2023-07-16T07:41:19.165Z,5.25
2023-07-16T07:43:46.739Z,4.83
2023-07-16T07:46:16.227Z,4.23
2023-07-16T07:48:43.986Z,4.30
2023-07-16T07:51:11.743Z,5.12
2023-07-16T07:53:39.347Z,5.20
2023-07-16T07:56:06.942Z,5.03
2023-07-16T07:58:34.533Z,4.20
2023-07-16T08:01:05.081Z,4.57
2023-07-16T08:03:32.850Z,4.60
2023-07-16T08:06:00.274Z,5.20
2023-07-16T08:08:27.901Z,4.53
2023-07-16T08:10:55.494Z,4.53
2023-07-16T08:13:23.065Z,5.57
2023-07-16T08:15:50.676Z,5.33
2023-07-16T08:18:18.311Z,4.77
2023-07-16T08:20:45.840Z,5.23
2023-07-16T08:23:13.669Z,5.10
2023-07-16T08:25:41.286Z,5.03
2023-07-16T08:28:08.862Z,4.97
2023-07-16T08:30:37.289Z,4.70
2023-07-16T08:33:05.640Z,5.13
2023-07-16T08:35:33.211Z,4.93
2023-07-16T08:38:00.832Z,5.23
2023-07-16T08:40:28.446Z,5.07
2023-07-16T08:42:56.004Z,4.90
2023-07-16T08:45:23.786Z,5.30
2023-07-16T08:47:51.995Z,4.83
2023-07-16T08:50:19.566Z,5.27
2023-07-16T08:52:47.210Z,5.20
2023-07-16T08:55:14.791Z,5.43
2023-07-16T08:57:43.128Z,5.90
2023-07-16T09:00:10.842Z,6.17
2023-07-16T09:02:38.427Z,5.70
2023-07-16T09:05:06.030Z,5.20
2023-07-16T09:07:33.594Z,5.83
2023-07-16T09:10:02.003Z,5.80
2023-07-16T09:12:29.555Z,5.23
2023-07-16T09:14:57.148Z,6.10
2023-07-16T09:17:24.837Z,5.23
2023-07-16T09:19:52.316Z,5.40
2023-07-16T09:22:19.933Z,5.77
2023-07-16T09:24:47.529Z,5.70
2023-07-16T09:27:15.084Z,5.33
2023-07-16T09:29:42.711Z,5.90
2023-07-16T09:32:10.398Z,6.45
2023-07-16T09:34:37.856Z,5.40
2023-07-16T09:37:05.499Z,6.28
2023-07-16T09:39:33.066Z,5.03
2023-07-16T09:42:00.703Z,4.40
2023-07-16T09:44:28.318Z,5.78
2023-07-16T09:46:58.520Z,5.00
2023-07-16T09:49:26.833Z,5.40
2023-07-16T09:51:55.208Z,4.77
2023-07-16T09:54:23.992Z,5.60
2023-07-16T09:56:52.346Z,4.87
2023-07-16T09:59:19.975Z,5.27
2023-07-16T10:01:47.665Z,5.40
2023-07-16T10:04:21.075Z,5.20
2023-07-16T10:06:54.369Z,5.37
2023-07-16T10:09:43.449Z,5.00
2023-07-16T10:12:17.373Z,4.63
2023-07-16T10:14:50.367Z,6.53
2023-07-16T10:17:18.685Z,4.60
2023-07-16T10:19:58.295Z,8.03
2023-07-16T10:22:40.636Z,4.43
2023-07-16T10:25:11.653Z,4.00
2023-07-16T10:27:39.219Z,5.03
2023-07-16T10:30:06.876Z,4.00
2023-07-16T10:32:34.578Z,4.10
2023-07-16T10:35:02.149Z,4.23
2023-07-16T10:37:29.752Z,4.43
2023-07-16T10:39:58.125Z,4.68
2023-07-16T10:42:25.688Z,4.80
2023-07-16T10:44:53.263Z,4.30
2023-07-16T10:47:32.708Z,4.50
2023-07-16T10:50:00.260Z,3.53
2023-07-16T10:52:27.872Z,3.67
2023-07-16T10:54:55.559Z,3.30
2023-07-16T10:57:23.957Z,3.20
2023-07-16T10:59:54.254Z,3.60
2023-07-16T11:02:22.076Z,4.00
2023-07-16T11:04:49.750Z,3.70
2023-07-16T11:07:19.196Z,3.63
2023-07-16T11:09:46.830Z,4.13
2023-07-16T11:12:15.164Z,3.67
2023-07-16T11:14:45.686Z,4.00
2023-07-16T11:17:13.298Z,4.12
2023-07-16T11:19:41.136Z,3.67
2023-07-16T11:22:09.495Z,3.57
2023-07-16T11:24:46.108Z,3.53
2023-07-16T11:27:16.560Z,3.95
2023-07-16T11:29:49.885Z,3.97
2023-07-16T11:32:29.631Z,3.40
2023-07-16T11:34:57.875Z,4.47
2023-07-16T11:37:28.251Z,4.20
2023-07-16T11:39:58.760Z,3.40
2023-07-16T11:42:32.414Z,3.70
2023-07-16T11:44:59.940Z,4.35
2023-07-16T11:50:05.427Z,4.27
2023-07-16T11:52:33.015Z,4.13
2023-07-16T11:55:06.487Z,3.77
2023-07-16T11:57:34.121Z,3.97
2023-07-16T12:00:01.688Z,3.50
2023-07-16T12:02:30.088Z,3.50
2023-07-16T12:04:57.673Z,3.47
2023-07-16T12:07:34.555Z,3.63
2023-07-16T12:10:02.219Z,3.60
2023-07-16T12:12:29.713Z,3.80
2023-07-16T12:14:58.087Z,3.30
2023-07-16T12:17:25.836Z,3.33
2023-07-16T12:19:53.432Z,3.73
2023-07-16T12:22:20.965Z,3.43
2023-07-16T12:24:48.577Z,3.70
2023-07-16T12:27:17.031Z,4.00
2023-07-16T12:29:44.537Z,3.50
2023-07-16T12:32:12.256Z,3.53
2023-07-16T12:34:40.600Z,3.77
2023-07-16T12:37:11.407Z,4.10
2023-07-16T12:39:39.089Z,4.43
2023-07-16T12:42:06.868Z,3.53
2023-07-16T12:44:34.677Z,3.60
2023-07-16T12:47:02.389Z,3.43
2023-07-16T12:49:31.001Z,3.60
2023-07-16T12:51:59.353Z,3.40
2023-07-16T12:54:27.269Z,4.13
2023-07-16T12:56:54.821Z,3.90
2023-07-16T12:59:22.392Z,3.57
2023-07-16T13:01:50.387Z,3.73
2023-07-16T13:04:18.081Z,3.70
2023-07-16T13:06:46.414Z,3.97
2023-07-16T13:09:14.103Z,3.77
2023-07-16T13:11:41.647Z,3.90
2023-07-16T13:14:09.226Z,3.90
2023-07-16T13:16:36.971Z,4.45
2023-07-16T13:19:04.434Z,4.20
2023-07-16T13:21:32.006Z,3.83
2023-07-16T13:23:59.635Z,3.78
2023-07-16T13:26:27.209Z,3.97
2023-07-16T13:28:54.778Z,4.33
2023-07-16T13:31:22.493Z,3.97
2023-07-16T13:33:50.921Z,3.73
2023-07-16T13:36:18.790Z,3.77
2023-07-16T13:38:46.113Z,4.07
2023-07-16T13:41:13.977Z,4.50
2023-07-16T13:43:41.484Z,3.73
2023-07-16T13:46:09.119Z,5.23
2023-07-16T13:48:47.687Z,3.83
2023-07-16T13:51:04.322Z,3.83
2023-07-16T13:53:32.025Z,4.40
2023-07-16T13:55:59.596Z,4.40
2023-07-16T13:58:27.925Z,3.90
2023-07-16T14:00:55.542Z,4.27
2023-07-16T14:03:24.029Z,3.83
2023-07-16T14:05:51.472Z,3.77
2023-07-16T14:08:19.897Z,3.70
2023-07-16T14:10:48.182Z,4.10
2023-07-16T14:13:15.766Z,4.23
2023-07-16T14:15:43.377Z,3.70
2023-07-16T14:18:10.968Z,3.90
2023-07-16T14:20:38.551Z,4.20
2023-07-16T14:23:06.227Z,3.80
2023-07-16T14:25:33.809Z,3.37
2023-07-16T14:28:01.367Z,3.90
2023-07-16T14:30:28.983Z,3.90
2023-07-16T14:32:56.580Z,3.47
2023-07-16T14:35:35.147Z,3.60
2023-07-16T14:37:51.758Z,3.77
2023-07-16T14:40:19.325Z,3.57
2023-07-16T14:42:47.419Z,3.57
2023-07-16T14:45:15.827Z,3.80
2023-07-16T14:47:44.813Z,4.17
2023-07-16T14:50:12.347Z,3.63
2023-07-16T14:52:39.983Z,4.17
2023-07-16T14:55:07.605Z,3.40
2023-07-16T14:57:35.196Z,3.90
2023-07-16T15:00:02.839Z,3.63
2023-07-16T15:02:30.476Z,4.15
2023-07-16T15:04:58.024Z,4.10
2023-07-16T15:07:25.671Z,3.90
2023-07-16T15:09:54.043Z,3.60
2023-07-16T15:12:21.618Z,3.50
2023-07-16T15:14:50.058Z,3.33
2023-07-16T15:17:17.593Z,3.90
2023-07-16T15:19:45.190Z,3.20
2023-07-16T15:22:12.804Z,3.17
2023-07-16T15:24:40.384Z,3.78
2023-07-16T15:27:07.995Z,3.80
2023-07-16T15:29:36.381Z,3.27
2023-07-16T15:32:03.977Z,3.20
2023-07-16T15:34:31.556Z,3.60
2023-07-16T15:36:59.223Z,2.90
2023-07-16T15:39:26.793Z,3.30
2023-07-16T15:41:54.393Z,3.40
2023-07-16T15:44:22.008Z,3.58
2023-07-16T15:46:49.631Z,3.67
2023-07-16T15:49:17.950Z,3.90
2023-07-16T15:51:45.617Z,3.17
2023-07-16T15:54:13.134Z,3.90
2023-07-16T15:56:40.742Z,3.20
2023-07-16T15:59:09.202Z,3.40
2023-07-16T16:01:36.870Z,3.20
2023-07-16T16:04:05.157Z,3.20
2023-07-16T16:06:32.771Z,3.10
2023-07-16T16:09:00.359Z,3.40
2023-07-16T16:11:27.910Z,3.50
2023-07-16T16:13:55.530Z,3.43
2023-07-16T16:16:23.148Z,3.10
2023-07-16T16:18:50.803Z,2.70
2023-07-16T16:21:19.346Z,2.40
2023-07-16T16:23:47.469Z,2.60
2023-07-16T16:26:15.169Z,2.47
2023-07-16T16:28:43.443Z,3.03
2023-07-16T16:31:11.053Z,3.13
2023-07-16T16:33:38.600Z,2.60
2023-07-16T16:36:12.254Z,2.67
2023-07-16T16:38:40.596Z,2.67
2023-07-16T16:41:11.376Z,2.23
2023-07-16T16:43:39.708Z,2.70
2023-07-16T16:46:07.292Z,2.50
2023-07-16T16:48:35.635Z,2.62
2023-07-16T16:51:03.263Z,2.77
2023-07-16T16:53:30.848Z,3.03
2023-07-16T16:55:58.417Z,3.10
2023-07-16T16:58:26.023Z,3.17
2023-07-16T17:00:54.448Z,3.07
2023-07-16T17:03:21.930Z,2.90
2023-07-16T17:05:52.592Z,3.80
2023-07-16T17:08:20.121Z,3.50
2023-07-16T17:10:47.700Z,5.03
2023-07-16T17:13:16.092Z,3.80
2023-07-16T17:15:46.637Z,3.40
2023-07-16T17:18:14.286Z,2.37
2023-07-16T17:20:41.915Z,2.95
2023-07-16T17:23:09.523Z,2.70
2023-07-16T17:25:37.854Z,2.87
2023-07-16T17:28:05.526Z,2.83
2023-07-16T17:30:33.130Z,2.97
2023-07-16T17:33:00.705Z,2.47
2023-07-16T17:35:29.027Z,2.60
2023-07-16T17:37:57.371Z,2.97
2023-07-16T17:40:24.957Z,3.07
2023-07-16T17:42:53.357Z,3.13
2023-07-16T17:45:20.936Z,2.90
2023-07-16T17:47:48.518Z,2.63
2023-07-16T17:50:16.869Z,2.73
2023-07-16T17:52:44.451Z,2.77
2023-07-16T17:55:12.066Z,3.40
2023-07-16T17:57:40.459Z,2.90
2023-07-16T18:00:22.620Z,2.80
2023-07-16T18:02:36.737Z,2.57
2023-07-16T18:05:04.285Z,2.80
2023-07-16T18:07:31.763Z,3.12
2023-07-16T18:09:59.412Z,3.53
2023-07-16T18:12:26.954Z,3.00
2023-07-16T18:14:54.523Z,3.47
2023-07-16T18:17:22.137Z,4.57
2023-07-16T18:19:49.712Z,6.53
2023-07-16T18:22:29.864Z,7.65
2023-07-16T18:24:44.879Z,7.28
2023-07-16T18:27:12.492Z,5.00
2023-07-16T18:29:40.072Z,3.40
2023-07-16T18:32:07.905Z,3.30
2023-07-16T18:34:35.348Z,4.53
2023-07-16T18:37:02.899Z,3.63
2023-07-16T18:39:30.471Z,4.18
2023-07-16T18:41:58.846Z,3.37
2023-07-16T18:44:26.419Z,3.50
2023-07-16T18:46:54.821Z,3.37
2023-07-16T18:49:22.401Z,3.17
2023-07-16T18:51:50.020Z,3.50
2023-07-16T18:54:18.357Z,3.27
2023-07-16T18:56:45.977Z,2.80
2023-07-16T18:59:13.549Z,3.27
2023-07-16T19:01:41.206Z,3.30
2023-07-16T19:04:08.833Z,2.93
2023-07-16T19:06:36.366Z,3.55
2023-07-16T19:09:03.907Z,3.43
2023-07-16T19:11:31.549Z,3.40
2023-07-16T19:13:59.161Z,3.00
2023-07-16T19:16:26.757Z,3.57
2023-07-16T19:18:54.326Z,3.37
2023-07-16T19:21:21.889Z,3.00
2023-07-16T19:23:49.455Z,4.00
2023-07-16T19:26:17.320Z,3.20
2023-07-16T19:28:45.415Z,3.50
2023-07-16T19:31:13.100Z,3.57
2023-07-16T19:33:40.590Z,3.55
2023-07-16T19:36:14.288Z,3.10
2023-07-16T19:38:35.737Z,3.23
2023-07-16T19:41:05.998Z,3.70
2023-07-16T19:43:33.574Z,3.43
2023-07-16T19:46:01.905Z,3.47
2023-07-16T19:48:29.552Z,3.33
2023-07-16T19:50:57.100Z,3.43
2023-07-16T19:53:24.695Z,3.03
2023-07-16T19:55:52.292Z,3.73
2023-07-16T19:58:20.645Z,3.47
2023-07-16T20:00:48.297Z,3.60
2023-07-16T20:03:15.839Z,4.07
2023-07-16T20:05:43.420Z,3.40
2023-07-16T20:08:10.991Z,3.63
2023-07-16T20:10:39.363Z,3.07
2023-07-16T20:13:07.000Z,3.67
2023-07-16T20:15:34.636Z,3.23
2023-07-16T20:18:02.220Z,3.90
2023-07-16T20:20:29.770Z,3.50
2023-07-16T20:22:57.507Z,4.03
2023-07-16T20:25:24.962Z,3.33
2023-07-16T20:27:55.467Z,3.10
2023-07-16T20:30:25.510Z,3.07
2023-07-16T20:32:53.120Z,3.53
2023-07-16T20:35:20.707Z,3.80
2023-07-16T20:37:48.574Z,4.15
2023-07-16T20:40:16.209Z,4.03
2023-07-16T20:42:43.790Z,4.10
2023-07-16T20:45:21.221Z,3.90
2023-07-16T20:47:48.821Z,4.03
2023-07-16T20:50:16.369Z,4.00
2023-07-16T20:52:44.704Z,3.87
2023-07-16T20:55:12.300Z,4.03
2023-07-16T20:57:39.889Z,4.23
2023-07-16T21:00:07.630Z,6.03
2023-07-16T21:02:36.109Z,7.40
2023-07-16T21:05:03.579Z,8.40
2023-07-16T21:07:31.197Z,7.77
2023-07-16T21:09:58.794Z,8.45
2023-07-16T21:12:26.362Z,10.00
2023-07-16T21:14:53.998Z,7.00
2023-07-16T21:17:21.563Z,5.87
2023-07-16T21:19:49.144Z,6.27
2023-07-16T21:22:16.767Z,4.80
2023-07-16T21:24:44.337Z,4.03
2023-07-16T21:27:12.036Z,4.07
2023-07-16T21:29:39.536Z,3.87
2023-07-16T21:32:07.274Z,4.20
2023-07-16T21:34:34.823Z,3.70
2023-07-16T21:37:03.202Z,4.62
2023-07-16T21:39:31.548Z,4.33
2023-07-16T21:41:59.120Z,4.23
2023-07-16T21:44:26.735Z,4.37
2023-07-16T21:46:54.297Z,4.10
2023-07-16T21:49:21.872Z,3.90
2023-07-16T21:51:49.497Z,3.87
2023-07-16T21:54:17.857Z,4.10
2023-07-16T21:56:46.198Z,4.10
2023-07-16T21:59:13.833Z,4.20
2023-07-16T22:01:41.432Z,4.72
2023-07-16T22:04:08.980Z,4.13
2023-07-16T22:06:36.645Z,4.07
2023-07-16T22:09:04.200Z,3.77
2023-07-16T22:11:31.773Z,4.83
2023-07-16T22:13:59.387Z,4.30
2023-07-16T22:16:27.054Z,4.80
2023-07-16T22:18:54.612Z,4.20
2023-07-16T22:21:22.197Z,5.03
2023-07-16T22:23:49.799Z,4.40
2023-07-16T22:26:17.702Z,4.73
2023-07-16T22:28:45.754Z,4.23
2023-07-16T22:31:13.371Z,4.80
2023-07-16T22:33:40.918Z,4.53
2023-07-16T22:36:10.426Z,4.17
2023-07-16T22:38:36.139Z,5.30
2023-07-16T22:41:03.676Z,4.47
2023-07-16T22:43:31.281Z,4.53
2023-07-16T22:45:58.877Z,4.80
2023-07-16T22:48:27.188Z,4.77
2023-07-16T22:50:54.796Z,4.67
2023-07-16T22:53:23.154Z,4.87
2023-07-16T22:55:50.736Z,4.97
2023-07-16T22:58:19.143Z,5.03
2023-07-16T23:00:46.720Z,5.13
2023-07-16T23:03:14.418Z,4.83
2023-07-16T23:05:41.941Z,4.87
2023-07-16T23:08:09.482Z,4.73
2023-07-16T23:10:37.081Z,4.57
2023-07-16T23:13:04.685Z,5.43
2023-07-16T23:15:32.323Z,5.27
2023-07-16T23:17:59.894Z,4.47
2023-07-16T23:20:27.477Z,4.80
2023-07-16T23:22:55.184Z,4.73
2023-07-16T23:25:22.626Z,4.60
2023-07-16T23:27:50.253Z,4.97
2023-07-16T23:30:17.832Z,4.97
2023-07-16T23:32:45.422Z,4.73
2023-07-16T23:35:13.057Z,5.57
2023-07-16T23:37:40.646Z,5.70
2023-07-16T23:40:08.433Z,5.07
2023-07-16T23:42:36.032Z,4.93
2023-07-16T23:45:03.617Z,5.07
2023-07-16T23:47:31.216Z,4.77
2023-07-16T23:49:58.820Z,4.70
2023-07-16T23:52:26.396Z,5.20
2023-07-16T23:54:53.982Z,5.27
2023-07-16T23:57:23.201Z,5.17
2023-07-16T23:59:49.151Z,5.75
